Fargo, ND

3:13 AM CST on January 17, 2017 (GMT -0600)
Hector International | | Change Station

Elev 899 ft 46.92 °N, 96.81 °W | Updated 20 minutes ago

Clear
Clear
4 °F
Feels Like -7 °F
N
6
Wind Variable Wind from South

Today
High -- | Low -- °F
--% Chance of Precip.
Yesterday
High -- | Low -- °F
Precip. -- in
Pressure 30.08 in
Visibility 8.0 miles
Clouds Clear
Windchill -7 °F
Dew Point 0 °F
Humidity 84%
Rainfall 0.00 in
Snow Depth Not available.
8:06 AM 5:08 PM
Waning Gibbous, 74% visible
METAR KFAR 170853Z 18005KT 8SM CLR M16/M18 A3001 RMK AO2 SLP184 I3000 T11561178 56007
Pressure 30.08 in
Visibility 8.0 miles
Clouds Clear
Windchill -7 °F
Dew Point 0 °F
Humidity 84%
Rainfall 0.00 in
Snow Depth Not available.
8:06 AM 5:08 PM
Waning Gibbous, 74% visible
METAR KFAR 170853Z 18005KT 8SM CLR M16/M18 A3001 RMK AO2 SLP184 I3000 T11561178 56007

Get Your Daily Forecast Email!

Thanks for signing up!

Be on the lookout for a verification email in your inbox.

You'll start receiving the daily forecast at 8 AM.

×

10-Day Weather Forecast

Almanac

Astronomy

Jan. 17, 2017 Rise Set
Actual Time
Civil Twilight
Nautical Twilight
Astronomical Twilight
Moon
Length of Visible Light
Length of Day
Tomorrow will be .
, % of the Moon is Illuminated

Today's Extremes

State Highs State Lows

Community

WunderPhotos

Upload Photos

1,962,540 photos uploaded!

WunderBlog® & News

Nearby

Air Quality

  Air Quality AQ Index Pollutant
Not available.

Snow Depth

Station Depth Elevation

Earthquake Activity

City Distance Mag. Time & Date
Minimum magnitude displayed is 2.5.

Coastal Water Temperatures

Place Temperature

Stations

Nearby Weather Stations

Station Location Temp. Windchill Dew Point Humidity Wind Precip. Elev Updated Type
                   

Watches & Warnings

There are currently no watches in effect.